Time;durP1;ratioP1;P1;durP2;ratioP2;P2;SDS_P1;SDS_P2;PMS_P1;PMS_P2;Temp;Humidity;BMP_temperature;BMP_pressure;BME280_temperature;BME280_humidity;BME280_pressure;Samples;Min_cycle;Max_cycle;Signal;HPM_P1;HPM_P2
2021/04/18 00:01:24;;;;;;;172.00;58.00;;;;;;;10.73;68.76;100369.81;4913245;29;20143;-80
2021/04/18 00:03:51;;;;;;;173.40;58.45;;;;;;;10.76;68.79;100376.69;4914231;29;20067;-74
2021/04/18 00:06:18;;;;;;;153.40;58.97;;;;;;;10.76;69.06;100369.59;4924068;29;20067;-75
2021/04/18 00:08:45;;;;;;;184.73;61.97;;;;;;;10.79;68.59;100373.84;4933503;29;20127;-76
2021/04/18 00:11:14;;;;;;;164.77;57.25;;;;;;;10.79;68.53;100365.91;4939875;29;20044;-79
2021/04/18 00:13:40;;;;;;;162.43;57.25;;;;;;;10.78;68.81;100370.34;4940656;29;20051;-76
2021/04/18 00:16:08;;;;;;;168.48;58.05;;;;;;;10.77;68.73;100367.81;4939287;29;20044;-73
2021/04/18 00:18:35;;;;;;;190.20;62.33;;;;;;;10.78;68.70;100370.34;4935560;29;20048;-75
2021/04/18 00:21:02;;;;;;;182.32;60.08;;;;;;;10.80;68.68;100378.16;4934902;29;20058;-82
2021/04/18 00:23:29;;;;;;;182.63;63.85;;;;;;;10.83;68.70;100376.13;4934855;29;20083;-79
2021/04/18 00:25:55;;;;;;;195.02;65.15;;;;;;;10.85;68.70;100381.31;4933758;29;20055;-79
2021/04/18 00:28:22;;;;;;;176.38;62.67;;;;;;;10.84;68.59;100387.53;4934429;29;20051;-79
2021/04/18 00:30:50;;;;;;;162.55;56.22;;;;;;;10.85;68.69;100384.78;4932482;29;20048;-77
2021/04/18 00:33:18;;;;;;;184.02;60.10;;;;;;;10.86;68.59;100375.94;4929966;29;20054;-78
2021/04/18 00:35:44;;;;;;;144.25;50.70;;;;;;;10.75;68.73;100386.44;4932190;29;20051;-79
2021/04/18 00:38:10;;;;;;;154.07;50.50;;;;;;;10.62;69.04;100385.59;4931920;29;20050;-74
2021/04/18 00:40:38;;;;;;;148.20;53.53;;;;;;;10.51;69.28;100391.63;4932568;29;20054;-76
2021/04/18 00:43:05;;;;;;;163.88;56.45;;;;;;;10.43;69.38;100396.63;4931531;29;20087;-78
2021/04/18 00:45:32;;;;;;;179.63;55.58;;;;;;;10.37;69.51;100397.03;4931902;29;20485;-76
2021/04/18 00:48:00;;;;;;;170.25;57.72;;;;;;;10.34;69.46;100395.47;4935220;28;20047;-80
2021/04/18 00:50:30;;;;;;;181.77;61.72;;;;;;;10.37;69.74;100395.25;4947448;28;20059;-75
2021/04/18 00:52:58;;;;;;;185.57;60.38;;;;;;;10.38;69.58;100391.66;4948160;28;20031;-77
2021/04/18 00:55:28;;;;;;;163.25;54.95;;;;;;;10.38;69.56;100389.00;4947072;28;20141;-80
2021/04/18 00:57:56;;;;;;;179.55;56.13;;;;;;;10.38;69.52;100388.16;4948061;28;20130;-79
2021/04/18 01:00:25;;;;;;;177.07;58.95;;;;;;;10.36;69.51;100390.91;4947946;28;20050;-76
2021/04/18 01:02:51;;;;;;;178.20;59.00;;;;;;;10.38;69.34;100393.44;4946301;28;20031;-76
2021/04/18 01:05:19;;;;;;;152.75;51.97;;;;;;;10.38;69.52;100391.66;4946911;28;20151;-78
2021/04/18 01:07:47;;;;;;;177.80;57.80;;;;;;;10.40;69.50;100389.75;4932064;28;20062;-78
2021/04/18 01:10:16;;;;;;;159.13;54.17;;;;;;;10.44;69.34;100388.59;4945392;29;20167;-75
2021/04/18 01:12:43;;;;;;;150.18;50.92;;;;;;;10.45;69.25;100389.44;4944770;29;20130;-77
2021/04/18 01:15:11;;;;;;;160.63;51.65;;;;;;;10.46;69.35;100391.09;4944063;29;20058;-75
2021/04/18 01:17:38;;;;;;;155.27;47.90;;;;;;;10.49;69.18;100389.09;4945799;29;20110;-78
2021/04/18 01:20:08;;;;;;;157.10;55.42;;;;;;;10.54;69.33;100388.78;4943999;29;20075;-76
2021/04/18 01:22:36;;;;;;;166.68;52.85;;;;;;;10.57;68.97;100382.44;4945036;29;20118;-75
2021/04/18 01:25:03;;;;;;;151.77;51.05;;;;;;;10.57;69.01;100380.66;4946289;29;20056;-74
2021/04/18 01:27:30;;;;;;;156.52;54.28;;;;;;;10.58;69.05;100371.75;4946469;29;20073;-74
2021/04/18 01:29:57;;;;;;;165.15;55.97;;;;;;;10.61;68.91;100365.44;4939732;29;20052;-79
2021/04/18 01:32:23;;;;;;;172.35;55.08;;;;;;;10.67;68.82;100373.75;4933311;29;20114;-74
2021/04/18 01:34:50;;;;;;;156.60;52.55;;;;;;;10.71;68.66;100371.72;4935265;29;20095;-75
2021/04/18 01:37:18;;;;;;;194.98;60.28;;;;;;;10.71;68.70;100369.94;4935694;29;20048;-77
2021/04/18 01:39:47;;;;;;;190.52;59.70;;;;;;;10.69;68.70;100376.28;4935920;29;20356;-79
2021/04/18 01:42:14;;;;;;;215.98;56.30;;;;;;;10.64;68.79;100368.69;4936457;29;20050;-81
2021/04/18 01:44:41;;;;;;;216.52;64.30;;;;;;;10.61;68.70;100368.06;4936341;29;20048;-73
2021/04/18 01:47:07;;;;;;;197.93;58.38;;;;;;;10.54;69.11;100367.66;4933648;29;20051;-74
2021/04/18 01:49:34;;;;;;;186.98;57.25;;;;;;;10.56;68.91;100370.19;4933858;29;20099;-74
2021/04/18 01:52:00;;;;;;;173.77;53.35;;;;;;;10.55;68.98;100373.78;4933397;29;20054;-82
2021/04/18 01:54:27;;;;;;;206.10;56.92;;;;;;;10.50;69.19;100368.81;4933498;29;20052;-74
2021/04/18 01:56:55;;;;;;;173.48;55.42;;;;;;;10.46;69.17;100368.19;4933286;29;20055;-74
2021/04/18 01:59:21;;;;;;;194.82;59.10;;;;;;;10.43;69.22;100364.94;4933656;29;20052;-75
2021/04/18 02:01:47;;;;;;;170.27;57.22;;;;;;;10.35;69.60;100362.81;4932747;29;20138;-74
2021/04/18 02:04:22;;;;;;;187.07;59.08;;;;;;;10.30;69.92;100365.75;4938183;29;20035;-75
2021/04/18 02:06:48;;;;;;;190.35;54.47;;;;;;;10.42;69.39;100364.06;4936355;29;20051;-74
2021/04/18 02:09:14;;;;;;;164.98;52.55;;;;;;;10.44;69.15;100359.56;4947568;28;20044;-73
2021/04/18 02:11:41;;;;;;;154.05;53.40;;;;;;;10.44;69.43;100362.19;4944111;28;20032;-74
2021/04/18 02:14:09;;;;;;;172.18;53.47;;;;;;;10.50;69.26;100358.25;4943581;28;20036;-75
2021/04/18 02:16:36;;;;;;;193.95;59.63;;;;;;;10.47;68.97;100364.59;4946578;28;20048;-77
2021/04/18 02:19:04;;;;;;;177.60;57.78;;;;;;;10.48;69.00;100355.72;4945949;28;20048;-76
2021/04/18 02:21:30;;;;;;;145.90;51.05;;;;;;;10.51;69.02;100355.53;4943688;28;20039;-75
2021/04/18 02:23:57;;;;;;;169.65;55.75;;;;;;;10.49;68.89;100348.66;4945169;28;20101;-75
2021/04/18 02:26:23;;;;;;;163.98;54.88;;;;;;;10.46;69.06;100349.72;4945468;28;20063;-77
2021/04/18 02:28:50;;;;;;;147.80;48.92;;;;;;;10.47;68.98;100347.91;4947541;29;20055;-77
2021/04/18 02:31:17;;;;;;;173.05;54.42;;;;;;;10.50;69.05;100345.91;4946042;29;20043;-76
2021/04/18 02:33:44;;;;;;;139.63;49.85;;;;;;;10.55;69.01;100342.06;4896793;29;20044;-79
2021/04/18 02:36:10;;;;;;;149.85;52.03;;;;;;;10.55;68.70;100347.38;4947995;29;20056;-78
2021/04/18 02:38:37;;;;;;;144.82;53.05;;;;;;;10.42;69.35;100340.31;4949210;29;20047;-75
2021/04/18 02:41:04;;;;;;;149.82;52.95;;;;;;;10.35;69.37;100346.13;4932720;29;20058;-76
2021/04/18 02:43:31;;;;;;;192.50;57.83;;;;;;;10.36;69.59;100340.75;4940362;29;20055;-79
2021/04/18 02:45:58;;;;;;;155.80;53.15;;;;;;;10.34;69.46;100337.38;4942164;29;20071;-81
2021/04/18 02:48:25;;;;;;;162.07;50.60;;;;;;;10.28;69.44;100337.75;4934638;29;20052;-81
2021/04/18 02:50:52;;;;;;;158.35;48.78;;;;;;;10.28;69.39;100337.75;4935989;29;20059;-82
2021/04/18 02:53:18;;;;;;;167.57;51.28;;;;;;;10.34;69.21;100337.38;4935115;29;20051;-82
2021/04/18 02:55:45;;;;;;;156.05;48.83;;;;;;;10.40;69.08;100336.94;4935783;29;20051;-82
2021/04/18 02:58:11;;;;;;;154.35;50.22;;;;;;;10.31;69.30;100340.22;4934833;29;20048;-77
2021/04/18 03:00:37;;;;;;;169.18;50.30;;;;;;;10.37;69.26;100344.22;4935365;29;20047;-81
2021/04/18 03:03:05;;;;;;;170.98;53.05;;;;;;;10.49;69.05;100343.38;4933306;29;20065;-80
2021/04/18 03:05:32;;;;;;;175.13;54.53;;;;;;;10.54;68.58;100335.13;4934062;29;20052;-82
2021/04/18 03:07:59;;;;;;;141.85;48.40;;;;;;;10.48;68.84;100337.25;4933583;29;20057;-80
2021/04/18 03:10:25;;;;;;;154.30;50.53;;;;;;;10.47;68.98;100334.72;4881750;29;20504;-82
2021/04/18 03:12:52;;;;;;;166.18;49.85;;;;;;;10.47;69.09;100334.72;4932161;29;20044;-80
2021/04/18 03:15:18;;;;;;;160.98;53.30;;;;;;;10.44;69.07;100341.06;4933008;29;20056;-73
2021/04/18 03:17:45;;;;;;;144.93;49.22;;;;;;;10.39;69.20;100352.88;4931921;29;20056;-81
2021/04/18 03:20:12;;;;;;;160.40;49.80;;;;;;;10.46;69.07;100348.84;4932210;29;20056;-74
2021/04/18 03:22:40;;;;;;;182.40;52.92;;;;;;;10.49;68.63;100354.75;4932225;29;20062;-81
2021/04/18 03:25:07;;;;;;;176.02;50.70;;;;;;;10.35;68.71;100361.97;4915848;29;20063;-74
2021/04/18 03:27:34;;;;;;;187.90;49.95;;;;;;;10.29;68.90;100360.56;4937646;29;20663;-81
2021/04/18 03:30:01;;;;;;;165.30;51.35;;;;;;;10.19;69.39;100362.16;4939520;28;20082;-80
2021/04/18 03:32:27;;;;;;;240.55;63.80;;;;;;;10.11;69.28;100360.88;4936746;28;20099;-82
2021/04/18 03:34:54;;;;;;;208.50;53.70;;;;;;;10.04;69.48;100364.06;4937795;29;20054;-77
2021/04/18 03:37:21;;;;;;;173.70;55.35;;;;;;;9.99;69.59;100361.72;4938499;29;20046;-82
2021/04/18 03:39:48;;;;;;;163.25;53.78;;;;;;;9.93;69.62;100375.34;4939471;28;20056;-80
2021/04/18 03:42:14;;;;;;;158.48;51.35;;;;;;;9.90;69.59;100379.06;4931528;29;20055;-74
2021/04/18 03:44:41;;;;;;;167.63;50.95;;;;;;;9.87;69.67;100381.06;4930745;29;20077;-77
2021/04/18 03:47:07;;;;;;;187.18;58.60;;;;;;;9.88;69.79;100385.38;4930193;29;20456;-77
2021/04/18 03:49:34;;;;;;;227.57;62.15;;;;;;;9.88;69.74;100380.91;4930843;29;20051;-74
2021/04/18 03:52:00;;;;;;;216.40;65.25;;;;;;;9.88;69.72;100385.38;4931608;29;20050;-74
2021/04/18 03:54:27;;;;;;;243.18;73.97;;;;;;;9.89;69.66;100381.78;4896242;29;20388;-76
2021/04/18 03:56:54;;;;;;;244.80;69.63;;;;;;;9.88;69.61;100388.00;4930859;29;20059;-78
2021/04/18 03:59:20;;;;;;;255.45;73.07;;;;;;;9.89;69.66;100381.78;4929847;29;20062;-79
2021/04/18 04:01:47;;;;;;;212.68;64.13;;;;;;;9.85;69.74;100375.88;4929152;29;20504;-76
2021/04/18 04:04:14;;;;;;;167.52;50.58;;;;;;;9.83;69.70;100377.78;4929541;29;20052;-78
2021/04/18 04:06:40;;;;;;;154.38;50.70;;;;;;;9.77;69.83;100384.28;4929905;29;20052;-74
2021/04/18 04:09:07;;;;;;;171.00;55.28;;;;;;;9.78;69.74;100385.16;4930263;29;20050;-78
2021/04/18 04:11:33;;;;;;;157.73;49.90;;;;;;;9.78;69.77;100387.78;4912369;29;20058;-77
2021/04/18 04:14:01;;;;;;;133.73;46.00;;;;;;;9.76;69.75;100382.59;4929022;29;20055;-74
2021/04/18 04:16:27;;;;;;;144.27;45.80;;;;;;;9.80;69.70;100382.41;4928986;29;20052;-80
2021/04/18 04:18:54;;;;;;;158.57;51.97;;;;;;;9.79;69.67;100385.97;4929978;29;20092;-77
2021/04/18 04:21:21;;;;;;;136.27;47.10;;;;;;;9.80;69.76;100380.59;4929027;29;20172;-75
2021/04/18 04:23:47;;;;;;;131.10;49.03;;;;;;;9.80;69.73;100379.78;4934732;29;20063;-79
2021/04/18 04:26:14;;;;;;;132.88;48.95;;;;;;;9.86;69.56;100382.00;4933638;29;20047;-75
2021/04/18 04:28:40;;;;;;;140.77;49.70;;;;;;;9.96;69.31;100388.34;4933221;29;20047;-84
2021/04/18 04:31:08;;;;;;;134.82;44.78;;;;;;;10.03;69.10;100392.25;4933135;29;20118;-77
2021/04/18 04:33:36;;;;;;;141.02;49.63;;;;;;;10.01;69.14;100388.88;4933488;29;20064;-78
2021/04/18 04:36:03;;;;;;;128.98;43.38;;;;;;;9.92;69.31;100392.13;4934785;29;20091;-78
2021/04/18 04:38:30;;;;;;;109.70;40.97;;;;;;;9.83;69.53;100398.00;4936019;29;20134;-74
2021/04/18 04:40:57;;;;;;;109.00;42.58;;;;;;;9.70;69.76;100393.56;4939697;29;20032;-76
2021/04/18 04:43:26;;;;;;;103.65;38.78;;;;;;;9.69;69.71;100396.31;4954148;28;20061;-76
2021/04/18 04:45:52;;;;;;;121.60;44.50;;;;;;;9.76;69.58;100398.44;4954919;28;20034;-76
2021/04/18 04:48:21;;;;;;;106.38;39.95;;;;;;;9.83;69.34;100393.59;4948904;28;20493;-74
2021/04/18 04:50:47;;;;;;;108.40;38.50;;;;;;;9.89;69.19;100392.34;4936950;28;20250;-74
2021/04/18 04:53:14;;;;;;;97.90;43.05;;;;;;;9.96;69.02;100393.63;4935510;29;20429;-75
2021/04/18 04:55:42;;;;;;;120.32;41.88;;;;;;;10.02;68.79;100387.91;4936302;29;20058;-75
2021/04/18 04:58:09;;;;;;;95.30;38.47;;;;;;;10.08;68.90;100384.00;4932228;29;20059;-74
2021/04/18 05:00:35;;;;;;;100.85;36.55;;;;;;;10.14;68.63;100384.44;4931376;29;20091;-76
2021/04/18 05:03:02;;;;;;;93.68;37.53;;;;;;;10.25;68.71;100388.16;4930211;29;20635;-76
2021/04/18 05:05:30;;;;;;;78.30;36.50;;;;;;;10.35;68.34;100391.84;4931224;29;20054;-75
2021/04/18 05:07:56;;;;;;;79.43;35.63;;;;;;;10.42;68.06;100395.75;4930687;29;20108;-74
2021/04/18 05:10:22;;;;;;;88.68;37.92;;;;;;;10.37;68.52;100395.25;4932438;29;20280;-76
2021/04/18 05:12:49;;;;;;;89.20;38.47;;;;;;;10.34;68.70;100392.81;4932220;29;20058;-75
2021/04/18 05:15:16;;;;;;;84.70;39.38;;;;;;;10.40;68.62;100394.19;4932044;29;20512;-74
2021/04/18 05:17:42;;;;;;;92.20;36.85;;;;;;;10.46;68.41;100391.09;4932772;29;20082;-75
2021/04/18 05:20:10;;;;;;;88.55;36.60;;;;;;;10.52;68.11;100391.53;4932594;29;20047;-72
2021/04/18 05:22:38;;;;;;;75.10;35.15;;;;;;;10.66;68.12;100397.63;4933567;29;20086;-74
2021/04/18 05:25:05;;;;;;;84.57;34.58;;;;;;;10.70;67.88;100386.75;4932447;29;20165;-75
2021/04/18 05:27:32;;;;;;;85.40;36.45;;;;;;;10.88;67.33;100397.81;4914330;29;20058;-75
2021/04/18 05:29:59;;;;;;;70.88;34.40;;;;;;;11.06;66.99;100400.09;4931957;29;20044;-74
2021/04/18 05:32:25;;;;;;;87.72;36.33;;;;;;;11.06;66.64;100398.28;4929635;29;20052;-73
2021/04/18 05:34:52;;;;;;;73.43;34.47;;;;;;;11.12;66.58;100399.63;4931521;29;20129;-74
2021/04/18 05:37:18;;;;;;;72.20;35.58;;;;;;;11.31;66.35;100404.44;4932466;29;20074;-76
2021/04/18 05:39:46;;;;;;;64.85;32.03;;;;;;;11.41;66.20;100400.13;4917014;29;20052;-74
2021/04/18 05:42:13;;;;;;;58.00;30.55;;;;;;;11.46;65.86;100413.88;4934837;29;20201;-74
2021/04/18 05:44:39;;;;;;;58.90;29.75;;;;;;;11.41;66.25;100409.88;4934860;29;20051;-75
2021/04/18 05:47:05;;;;;;;61.60;32.17;;;;;;;11.52;65.79;100407.28;4936317;29;20681;-76
2021/04/18 05:49:33;;;;;;;57.30;30.20;;;;;;;11.62;65.65;100408.28;4936842;29;20047;-75
2021/04/18 05:52:00;;;;;;;60.28;29.92;;;;;;;11.79;65.28;100411.47;4940493;29;20058;-75
2021/04/18 05:54:26;;;;;;;52.40;30.10;;;;;;;11.92;64.60;100417.59;4934410;29;20052;-75
2021/04/18 05:56:53;;;;;;;58.67;28.88;;;;;;;11.86;64.80;100413.53;4933142;29;20181;-75
2021/04/18 05:59:20;;;;;;;58.25;27.27;;;;;;;12.00;64.49;100423.13;4933554;29;20048;-76
2021/04/18 06:01:48;;;;;;;55.45;31.30;;;;;;;12.14;64.05;100418.59;4917287;29;20058;-80
2021/04/18 06:04:15;;;;;;;61.75;30.38;;;;;;;12.22;63.61;100406.44;4933294;29;20055;-77
2021/04/18 06:06:41;;;;;;;53.72;29.08;;;;;;;12.22;63.41;100413.53;4932954;29;20052;-71
2021/04/18 06:09:08;;;;;;;64.18;30.35;;;;;;;12.18;63.49;100412.94;4931470;29;20058;-77
2021/04/18 06:11:35;;;;;;;51.03;24.95;;;;;;;12.07;63.73;100412.91;4929330;29;20058;-69
2021/04/18 06:14:02;;;;;;;53.55;27.30;;;;;;;11.99;63.89;100410.00;4930771;29;20054;-73
2021/04/18 06:16:32;;;;;;;61.65;28.00;;;;;;;11.87;64.14;100414.41;4927192;29;20617;-69
2021/04/18 06:18:58;;;;;;;62.40;30.88;;;;;;;11.90;64.15;100422.13;4934292;29;20048;-70
2021/04/18 06:21:26;;;;;;;59.25;29.75;;;;;;;12.09;63.97;100418.09;4933451;29;20047;-72
2021/04/18 06:23:54;;;;;;;55.17;33.58;;;;;;;12.22;63.26;100421.47;4919394;29;20110;-68
2021/04/18 06:26:21;;;;;;;52.80;27.13;;;;;;;12.10;63.46;100419.78;4933918;29;20131;-69
2021/04/18 06:28:47;;;;;;;65.43;28.35;;;;;;;11.99;63.67;100424.09;4933930;29;20122;-71
2021/04/18 06:31:15;;;;;;;54.15;26.55;;;;;;;12.00;63.71;100428.41;4934961;29;20485;-70
2021/04/18 06:33:44;;;;;;;54.85;28.10;;;;;;;12.06;63.51;100427.09;4936857;29;20150;-72
2021/04/18 06:36:13;;;;;;;55.30;27.77;;;;;;;12.11;63.54;100432.06;4939758;29;20047;-77
2021/04/18 06:38:40;;;;;;;46.58;23.77;;;;;;;12.19;63.29;100432.31;4936544;29;20080;-72
2021/04/18 06:41:35;;;;;;;45.67;23.52;;;;;;;12.55;62.76;100433.06;4936186;29;20055;-76
2021/04/18 06:44:05;;;;;;;45.75;24.42;;;;;;;12.75;62.02;100434.19;4944062;29;20135;-75
2021/04/18 06:46:33;;;;;;;42.83;24.60;;;;;;;12.75;61.91;100440.31;4935459;29;20048;-77
2021/04/18 06:49:01;;;;;;;49.67;26.45;;;;;;;12.60;62.30;100436.22;4941080;29;20067;-81
2021/04/18 06:51:33;;;;;;;46.75;24.40;;;;;;;12.58;62.47;100444.28;4923228;29;20078;-79
2021/04/18 06:54:00;;;;;;;40.83;24.80;;;;;;;12.43;62.52;100441.03;4925550;29;20058;-81
2021/04/18 06:56:29;;;;;;;44.58;24.95;;;;;;;12.27;62.77;100437.88;4922568;29;20079;-85
2021/04/18 06:59:17;;;;;;;43.90;26.25;;;;;;;12.23;63.22;100429.31;4948494;29;20074;-82
2021/04/18 07:01:47;;;;;;;45.88;24.08;;;;;;;12.42;62.70;100435.84;4945378;29;20047;-74
2021/04/18 07:04:16;;;;;;;52.13;26.80;;;;;;;12.65;62.13;100441.16;4938329;29;20114;-81
2021/04/18 07:06:45;;;;;;;40.13;23.15;;;;;;;12.83;61.58;100437.06;4931761;29;20139;-78
2021/04/18 07:09:13;;;;;;;36.42;21.33;;;;;;;12.92;61.27;100446.94;4932290;29;20585;-82
2021/04/18 07:11:49;;;;;;;45.88;27.40;;;;;;;13.00;61.12;100454.31;4933187;29;20058;-78
2021/04/18 07:14:21;;;;;;;38.63;23.60;;;;;;;12.90;61.12;100448.03;4933405;29;20043;-79
2021/04/18 07:16:48;;;;;;;39.03;23.92;;;;;;;12.77;61.40;100449.00;4933079;29;20912;-73
2021/04/18 07:19:22;;;;;;;41.28;23.00;;;;;;;12.77;61.66;100446.34;4928778;29;20063;-76
2021/04/18 07:21:51;;;;;;;39.38;24.35;;;;;;;12.77;61.15;100443.69;4928310;29;20043;-75
2021/04/18 07:24:18;;;;;;;36.50;23.52;;;;;;;12.77;61.13;100448.16;4932197;29;20129;-74
2021/04/18 07:26:53;;;;;;;47.63;26.23;;;;;;;12.80;60.91;100446.13;4926797;29;20123;-76
2021/04/18 07:29:21;;;;;;;47.78;24.55;;;;;;;12.86;61.05;100451.91;4927529;29;20043;-77
2021/04/18 07:31:51;;;;;;;38.63;21.25;;;;;;;12.91;60.90;100439.97;4926004;29;20056;-78
2021/04/18 07:34:20;;;;;;;39.17;24.23;;;;;;;13.00;60.60;100444.53;4928627;29;20047;-74
2021/04/18 07:36:49;;;;;;;37.33;21.25;;;;;;;13.03;60.22;100450.56;4918740;29;20110;-72
2021/04/18 07:39:17;;;;;;;43.97;26.15;;;;;;;13.16;60.15;100452.09;4924754;29;20048;-71
2021/04/18 07:41:47;;;;;;;34.63;19.60;;;;;;;13.20;59.78;100461.50;4923653;29;20105;-73
2021/04/18 07:44:15;;;;;;;37.08;19.92;;;;;;;13.03;59.85;100461.16;4925391;29;20051;-76
2021/04/18 07:46:49;;;;;;;36.58;21.45;;;;;;;12.98;60.20;100461.50;4926851;29;20047;-77
2021/04/18 07:49:19;;;;;;;35.63;21.80;;;;;;;13.12;59.84;100453.28;4925681;29;20111;-80
2021/04/18 07:51:47;;;;;;;36.58;23.25;;;;;;;13.41;59.02;100463.41;4923356;29;20059;-73
2021/04/18 07:54:18;;;;;;;36.28;21.38;;;;;;;13.64;58.34;100455.38;4920991;29;20512;-71
2021/04/18 07:56:46;;;;;;;35.80;22.20;;;;;;;13.77;57.95;100453.41;4923619;29;20106;-70
2021/04/18 07:59:14;;;;;;;36.33;21.48;;;;;;;13.79;57.68;100454.09;4923587;29;20090;-74
2021/04/18 08:01:40;;;;;;;32.55;20.42;;;;;;;13.84;57.68;100453.75;4919833;29;20135;-74
2021/04/18 08:04:10;;;;;;;33.28;21.23;;;;;;;14.10;56.60;100451.56;4920544;29;20184;-74
2021/04/18 08:06:38;;;;;;;33.42;20.58;;;;;;;14.07;56.73;100465.94;4922106;29;20062;-78
2021/04/18 08:09:24;;;;;;;36.00;22.77;;;;;;;14.10;57.31;100460.38;4923612;29;20044;-79
2021/04/18 08:12:10;;;;;;;;;;;;;;;14.52;56.87;100456.84;4919775;29;20044;-77
2021/04/18 08:14:38;;;;;;;28.45;18.38;;;;;;;14.04;57.03;100452.06;4922429;29;19954;-71
2021/04/18 08:17:07;;;;;;;30.45;19.90;;;;;;;13.84;57.26;100454.56;4921237;29;20058;-73
2021/04/18 08:19:36;;;;;;;31.00;19.30;;;;;;;13.93;56.93;100459.13;4919522;29;20058;-72
2021/04/18 08:22:07;;;;;;;34.95;21.13;;;;;;;14.21;56.20;100455.97;4920948;29;20070;-76
2021/04/18 08:24:38;;;;;;;30.85;18.98;;;;;;;14.53;55.42;100450.53;4873268;29;20059;-76
2021/04/18 08:27:08;;;;;;;34.08;20.23;;;;;;;14.95;54.28;100455.81;4924595;29;20461;-76
2021/04/18 08:29:39;;;;;;;31.75;19.08;;;;;;;15.28;53.43;100449.31;4916905;29;20389;-75
2021/04/18 08:32:11;;;;;;;35.85;22.55;;;;;;;15.56;52.81;100446.84;4916114;29;20110;-77
2021/04/18 08:34:43;;;;;;;33.78;21.63;;;;;;;15.82;52.39;100449.00;4906901;29;20132;-75
2021/04/18 08:37:21;;;;;;;32.08;20.48;;;;;;;15.84;52.11;100447.84;4924123;29;20039;-76
2021/04/18 08:39:48;;;;;;;37.15;23.35;;;;;;;15.75;52.04;100451.34;4921006;29;20054;-72
2021/04/18 08:42:30;;;;;;;37.13;24.02;;;;;;;15.30;52.22;100443.84;4927178;29;20694;-75
2021/04/18 08:45:01;;;;;;;38.75;21.67;;;;;;;15.21;52.48;100447.34;4925503;29;20067;-72
2021/04/18 08:47:30;;;;;;;36.50;22.15;;;;;;;15.32;52.14;100439.25;4921714;29;20052;-75
2021/04/18 08:50:06;;;;;;;28.25;18.17;;;;;;;15.32;52.50;100439.25;4922527;29;20056;-73
2021/04/18 08:52:35;;;;;;;32.67;20.88;;;;;;;15.49;51.87;100443.91;4922882;29;20052;-72
2021/04/18 08:55:04;;;;;;;31.02;19.73;;;;;;;15.84;51.41;100434.53;4921695;29;20055;-70
2021/04/18 08:57:37;;;;;;;33.25;22.42;;;;;;;16.45;50.13;100435.16;4924315;29;20047;-71
2021/04/18 09:00:12;;;;;;;34.83;22.73;;;;;;;16.99;49.03;100435.38;4908828;29;20051;-72
2021/04/18 09:02:39;;;;;;;27.80;19.40;;;;;;;17.00;47.10;100435.25;4924321;29;20055;-72
2021/04/18 09:05:11;;;;;;;28.65;20.83;;;;;;;16.60;46.56;100433.72;4926201;29;20106;-76
2021/04/18 09:07:46;;;;;;;28.85;19.20;;;;;;;16.14;46.75;100432.69;4908625;29;20208;-73
2021/04/18 09:10:21;;;;;;;28.95;17.92;;;;;;;16.32;47.87;100432.78;4929696;29;20103;-77
2021/04/18 09:12:47;;;;;;;24.83;16.38;;;;;;;16.81;47.08;100440.63;4929493;29;20249;-70
2021/04/18 09:15:14;;;;;;;26.40;16.85;;;;;;;17.09;46.36;100443.34;4928081;29;20051;-71
2021/04/18 09:17:41;;;;;;;28.17;17.90;;;;;;;17.20;46.52;100435.13;4928106;29;20052;-72
2021/04/18 09:20:13;;;;;;;26.83;17.90;;;;;;;16.60;47.43;100433.72;4925819;29;20103;-72
2021/04/18 09:22:41;;;;;;;28.45;17.33;;;;;;;16.12;48.36;100442.66;4925488;29;20055;-72
2021/04/18 09:25:10;;;;;;;26.08;17.08;;;;;;;15.98;48.69;100432.44;4923818;29;20044;-71
2021/04/18 09:27:37;;;;;;;30.77;18.83;;;;;;;15.58;49.55;100452.03;4925888;29;20061;-71
2021/04/18 09:30:07;;;;;;;29.65;18.70;;;;;;;15.12;50.70;100445.50;4924894;29;20044;-72
2021/04/18 09:32:38;;;;;;;27.50;18.48;;;;;;;15.14;50.61;100448.88;4923437;29;20479;-74
2021/04/18 09:35:06;;;;;;;27.88;17.92;;;;;;;15.01;50.46;100439.31;4925079;29;20591;-74
2021/04/18 09:37:35;;;;;;;31.52;20.88;;;;;;;14.78;51.41;100445.81;4925062;29;20690;-72
2021/04/18 09:40:08;;;;;;;27.10;17.77;;;;;;;14.78;51.54;100446.63;4926625;29;20048;-75
2021/04/18 09:42:41;;;;;;;34.13;20.23;;;;;;;14.72;51.68;100449.84;4895509;29;20079;-71
2021/04/18 09:45:10;;;;;;;28.40;17.35;;;;;;;14.48;51.85;100434.19;4926803;29;20122;-73
2021/04/18 09:47:37;;;;;;;29.20;18.60;;;;;;;14.45;51.94;100437.94;4921564;29;20043;-75
2021/04/18 09:50:06;;;;;;;29.75;20.33;;;;;;;14.79;51.37;100445.69;4926302;29;20091;-75
2021/04/18 09:52:39;;;;;;;27.90;18.13;;;;;;;15.25;50.54;100433.66;4927194;29;20556;-74
2021/04/18 09:55:27;;;;;;;29.13;18.45;;;;;;;15.68;50.47;100436.88;4929105;29;20062;-74
2021/04/18 09:57:55;;;;;;;31.73;19.13;;;;;;;15.90;49.82;100435.81;4929813;29;20131;-69
2021/04/18 10:00:34;;;;;;;26.17;16.80;;;;;;;16.49;48.86;100438.38;4931257;29;20067;-71
2021/04/18 10:03:09;;;;;;;25.58;19.15;;;;;;;17.21;47.42;100439.47;4931235;29;20043;-72
2021/04/18 10:05:39;;;;;;;27.30;17.45;;;;;;;17.39;46.56;100439.50;4929539;29;20104;-68
2021/04/18 10:08:18;;;;;;;24.48;16.63;;;;;;;17.67;45.81;100437.59;4927691;29;20071;-71
2021/04/18 10:10:46;;;;;;;26.48;17.92;;;;;;;17.91;45.40;100441.50;4923652;29;20047;-71
2021/04/18 10:13:13;;;;;;;25.75;15.77;;;;;;;18.07;44.83;100435.47;4926947;29;20043;-73
2021/04/18 10:15:54;;;;;;;19.92;14.90;;;;;;;17.96;44.97;100445.41;4926978;29;20453;-75
2021/04/18 10:18:21;;;;;;;22.63;14.85;;;;;;;17.63;45.16;100436.25;4926462;29;20059;-71
2021/04/18 10:20:49;;;;;;;22.77;15.75;;;;;;;17.30;45.63;100435.88;4931342;29;20122;-74
2021/04/18 10:23:19;;;;;;;22.10;15.68;;;;;;;17.05;46.43;100436.63;4930445;29;20073;-70
2021/04/18 10:25:45;;;;;;;23.23;15.07;;;;;;;16.98;46.36;100436.38;4929495;29;20056;-73
2021/04/18 10:28:12;;;;;;;28.20;15.73;;;;;;;16.85;46.58;100441.22;4929041;29;20044;-69
2021/04/18 10:30:40;;;;;;;23.67;15.88;;;;;;;16.66;47.17;100436.78;4929400;29;20646;-73
2021/04/18 10:33:07;;;;;;;24.05;16.05;;;;;;;16.68;46.87;100440.13;4925232;29;20166;-71
2021/04/18 10:35:33;;;;;;;26.73;16.40;;;;;;;16.61;46.90;100431.88;4921910;29;20158;-70
2021/04/18 10:38:04;;;;;;;25.95;16.88;;;;;;;16.52;46.92;100430.91;4923015;29;20718;-72
2021/04/18 10:40:32;;;;;;;25.98;16.45;;;;;;;16.47;46.83;100425.16;4922453;29;20064;-70
2021/04/18 10:42:58;;;;;;;25.08;16.38;;;;;;;16.52;46.61;100417.56;4922216;29;20175;-69
2021/04/18 10:45:25;;;;;;;24.92;15.35;;;;;;;16.37;46.49;100427.06;4921721;29;20048;-70
2021/04/18 10:50:35;;;;;;;28.52;17.40;;;;;;;16.20;47.16;100432.09;4923508;29;20052;-71
2021/04/18 10:53:02;;;;;;;29.92;17.67;;;;;;;16.21;47.32;100417.81;4920681;29;20040;-71
2021/04/18 10:55:29;;;;;;;26.80;16.60;;;;;;;16.34;47.11;100428.16;4923810;29;20047;-67
2021/04/18 10:58:03;;;;;;;28.10;18.92;;;;;;;16.53;46.88;100429.94;4912680;29;20047;-71
2021/04/18 11:00:29;;;;;;;22.92;15.18;;;;;;;16.51;46.60;100426.59;4904533;29;20062;-69
2021/04/18 11:02:56;;;;;;;27.02;16.38;;;;;;;16.30;46.78;100425.94;4922002;28;20052;-69
2021/04/18 11:05:23;;;;;;;25.23;17.17;;;;;;;16.23;46.57;100421.16;4921202;29;20052;-72
2021/04/18 11:07:52;;;;;;;26.25;16.02;;;;;;;16.44;46.15;100428.97;4920335;29;20054;-72
2021/04/18 11:10:18;;;;;;;27.33;16.70;;;;;;;16.82;45.64;100432.47;4921403;29;20039;-72
2021/04/18 11:12:45;;;;;;;24.05;15.30;;;;;;;16.97;45.31;100422.19;4926054;29;20141;-72
2021/04/18 11:15:14;;;;;;;25.25;16.52;;;;;;;16.91;45.14;100432.63;4920409;29;20047;-70